Time;durP1;ratioP1;P1;durP2;ratioP2;P2;SDS_P1;SDS_P2;PMS_P1;PMS_P2;Temp;Humidity;BMP_temperature;BMP_pressure;BME280_temperature;BME280_humidity;BME280_pressure;Samples;Min_cycle;Max_cycle;Signal;HPM_P1;HPM_P2
2023/06/12 00:00:28;;;;;;;10.37;6.97;;;;;;;;;;4953645;29;20785;-81
2023/06/12 00:02:57;;;;;;;8.70;6.80;;;;;;;;;;4953705;28;20203;-81
2023/06/12 00:05:27;;;;;;;12.57;6.80;;;;;;;;;;4953356;29;20233;-81
2023/06/12 00:07:57;;;;;;;10.60;6.83;;;;;;;;;;4953412;29;20199;-81
2023/06/12 00:10:24;;;;;;;8.53;6.53;;;;;;;;;;4953310;28;20226;-80
2023/06/12 00:12:52;;;;;;;12.70;6.57;;;;;;;;;;4953283;28;20242;-81
2023/06/12 00:15:19;;;;;;;7.43;6.43;;;;;;;;;;4953174;29;20203;-81
2023/06/12 00:17:48;;;;;;;10.77;7.27;;;;;;;;;;4952887;28;20720;-80
2023/06/12 00:20:15;;;;;;;9.70;6.93;;;;;;;;;;4953388;28;20715;-81
2023/06/12 00:22:43;;;;;;;9.97;6.60;;;;;;;;;;4952949;28;20819;-80
2023/06/12 00:25:11;;;;;;;12.23;7.30;;;;;;;;;;4953089;29;20214;-81
2023/06/12 00:27:39;;;;;;;9.73;7.30;;;;;;;;;;4953416;29;20294;-81
2023/06/12 00:30:07;;;;;;;10.43;7.13;;;;;;;;;;4953441;29;20195;-80
2023/06/12 00:32:35;;;;;;;9.47;7.37;;;;;;;;;;4953300;29;20298;-81
2023/06/12 00:35:03;;;;;;;11.47;7.33;;;;;;;;;;4953262;29;20238;-81
2023/06/12 00:37:31;;;;;;;9.93;7.80;;;;;;;;;;4952854;29;20246;-81
2023/06/12 00:39:58;;;;;;;9.47;7.47;;;;;;;;;;4952666;29;20225;-81
2023/06/12 00:42:31;;;;;;;12.40;8.17;;;;;;;;;;4953266;28;20262;-81
2023/06/12 00:44:58;;;;;;;12.03;8.80;;;;;;;;;;4953171;29;20203;-81
2023/06/12 00:47:26;;;;;;;13.63;9.10;;;;;;;;;;4952760;29;20676;-80
2023/06/12 00:49:54;;;;;;;12.47;9.60;;;;;;;;;;4952928;28;20213;-80
2023/06/12 00:52:24;;;;;;;12.83;10.27;;;;;;;;;;4953713;29;20226;-81
2023/06/12 00:54:52;;;;;;;13.50;10.47;;;;;;;;;;4952677;28;20203;-81
2023/06/12 00:57:22;;;;;;;12.73;10.23;;;;;;;;;;4952741;28;20691;-80
2023/06/12 00:59:50;;;;;;;14.73;10.37;;;;;;;;;;4952667;29;20699;-79
2023/06/12 01:02:18;;;;;;;13.90;10.63;;;;;;;;;;4952776;28;20203;-80
2023/06/12 01:04:46;;;;;;;14.83;10.50;;;;;;;;;;4956465;28;20196;-81
2023/06/12 01:07:16;;;;;;;13.67;10.40;;;;;;;;;;4956799;29;20199;-81
2023/06/12 01:09:49;;;;;;;13.67;10.53;;;;;;;;;;4956040;29;20286;-81
2023/06/12 01:12:17;;;;;;;13.83;10.53;;;;;;;;;;4956557;28;20290;-81
2023/06/12 01:14:46;;;;;;;14.67;11.00;;;;;;;;;;4956461;28;20290;-81
2023/06/12 01:17:16;;;;;;;13.23;11.57;;;;;;;;;;4956194;29;20263;-80
2023/06/12 01:19:44;;;;;;;14.77;10.97;;;;;;;;;;4956416;28;20238;-81
2023/06/12 01:22:13;;;;;;;13.40;10.70;;;;;;;;;;4951000;28;20294;-80
2023/06/12 01:24:55;;;;;;;12.93;10.77;;;;;;;;;;4947315;29;20647;-81
2023/06/12 01:27:30;;;;;;;12.23;9.93;;;;;;;;;;4955949;28;20282;-81
2023/06/12 01:30:16;;;;;;;13.37;11.30;;;;;;;;;;4956776;28;20226;-81
2023/06/12 01:32:48;;;;;;;14.03;10.10;;;;;;;;;;4956103;28;20655;-80
2023/06/12 01:35:17;;;;;;;12.93;9.63;;;;;;;;;;4954866;28;20207;-81
2023/06/12 01:37:50;;;;;;;17.30;10.80;;;;;;;;;;4955530;28;20235;-81
2023/06/12 01:40:18;;;;;;;15.80;10.87;;;;;;;;;;4956124;29;20246;-81
2023/06/12 01:42:45;;;;;;;13.87;11.13;;;;;;;;;;4956267;28;20199;-81
2023/06/12 01:45:12;;;;;;;12.77;10.73;;;;;;;;;;4956026;29;20231;-80
2023/06/12 01:47:39;;;;;;;13.87;10.53;;;;;;;;;;4955767;29;20300;-80
2023/06/12 01:50:10;;;;;;;14.53;10.20;;;;;;;;;;4955769;28;20200;-82
2023/06/12 01:52:38;;;;;;;13.17;10.60;;;;;;;;;;4955481;29;20286;-80
2023/06/12 01:55:05;;;;;;;12.57;10.40;;;;;;;;;;4955887;29;20203;-81
2023/06/12 01:57:33;;;;;;;11.30;10.10;;;;;;;;;;4955967;29;20285;-80
2023/06/12 02:00:00;;;;;;;12.13;9.60;;;;;;;;;;4955327;29;20210;-80
2023/06/12 02:02:28;;;;;;;11.83;8.93;;;;;;;;;;4956073;28;20359;-81
2023/06/12 02:04:55;;;;;;;11.30;9.60;;;;;;;;;;4955762;28;20203;-81
2023/06/12 02:07:23;;;;;;;12.23;9.53;;;;;;;;;;4955170;28;20243;-81
2023/06/12 02:09:51;;;;;;;14.17;9.33;;;;;;;;;;4955252;28;20205;-80
2023/06/12 02:12:18;;;;;;;11.60;10.13;;;;;;;;;;4955473;28;20294;-81
2023/06/12 02:14:47;;;;;;;11.13;9.40;;;;;;;;;;4954029;28;20639;-81
2023/06/12 02:17:17;;;;;;;12.47;9.33;;;;;;;;;;4955611;29;20322;-81
2023/06/12 02:19:44;;;;;;;13.77;10.07;;;;;;;;;;4955292;29;20204;-81
2023/06/12 02:22:12;;;;;;;11.23;9.20;;;;;;;;;;4954868;29;20298;-80
2023/06/12 02:24:40;;;;;;;11.67;8.97;;;;;;;;;;4955644;28;20294;-81
2023/06/12 02:27:07;;;;;;;12.67;9.10;;;;;;;;;;4954991;29;20203;-81
2023/06/12 02:29:35;;;;;;;11.13;9.30;;;;;;;;;;4954683;28;20743;-80
2023/06/12 02:32:02;;;;;;;11.80;8.83;;;;;;;;;;4954669;29;20290;-81
2023/06/12 02:34:29;;;;;;;11.00;9.40;;;;;;;;;;4955065;28;20238;-80
2023/06/12 02:36:56;;;;;;;10.73;8.97;;;;;;;;;;4954405;29;21025;-81
2023/06/12 02:39:23;;;;;;;10.90;9.10;;;;;;;;;;4954758;28;20207;-80
2023/06/12 02:41:52;;;;;;;12.27;9.23;;;;;;;;;;4954869;28;20317;-80
2023/06/12 02:44:19;;;;;;;11.87;9.13;;;;;;;;;;4954850;29;20282;-80
2023/06/12 02:46:53;;;;;;;12.00;9.00;;;;;;;;;;4954856;29;20286;-81
2023/06/12 02:49:21;;;;;;;12.13;9.03;;;;;;;;;;4954223;28;20297;-80
2023/06/12 02:51:48;;;;;;;12.27;9.53;;;;;;;;;;4955095;28;20298;-79
2023/06/12 02:54:16;;;;;;;10.73;9.10;;;;;;;;;;4954674;29;20295;-81
2023/06/12 02:56:44;;;;;;;10.87;9.33;;;;;;;;;;4954699;29;20206;-81
2023/06/12 02:59:14;;;;;;;12.00;9.53;;;;;;;;;;4954955;29;20206;-81
2023/06/12 03:01:43;;;;;;;12.30;9.43;;;;;;;;;;4954223;29;20321;-81
2023/06/12 03:04:11;;;;;;;9.83;8.83;;;;;;;;;;4954157;29;20231;-81
2023/06/12 03:06:38;;;;;;;12.47;9.83;;;;;;;;;;4954549;28;20266;-80
2023/06/12 03:09:08;;;;;;;10.30;9.07;;;;;;;;;;4954626;29;20604;-80
2023/06/12 03:11:36;;;;;;;9.90;8.80;;;;;;;;;;4954059;28;20208;-81
2023/06/12 03:14:03;;;;;;;13.30;10.10;;;;;;;;;;4954271;28;20238;-81
2023/06/12 03:16:32;;;;;;;12.07;9.77;;;;;;;;;;4954372;29;20306;-81
2023/06/12 03:18:59;;;;;;;12.47;9.60;;;;;;;;;;4953811;29;20219;-81
2023/06/12 03:21:26;;;;;;;11.83;9.67;;;;;;;;;;4954160;29;20326;-81
2023/06/12 03:23:53;;;;;;;11.90;10.63;;;;;;;;;;4953741;28;20199;-81
2023/06/12 03:26:20;;;;;;;14.70;10.63;;;;;;;;;;4953904;28;20633;-81
2023/06/12 03:28:47;;;;;;;12.90;10.67;;;;;;;;;;4953971;28;20195;-81
2023/06/12 03:31:15;;;;;;;15.03;11.07;;;;;;;;;;4954167;29;20218;-80
2023/06/12 03:33:43;;;;;;;13.07;10.43;;;;;;;;;;4953457;28;20664;-80
2023/06/12 03:36:11;;;;;;;12.63;10.50;;;;;;;;;;4954059;28;20219;-80
2023/06/12 03:38:38;;;;;;;13.00;10.47;;;;;;;;;;4953843;28;20204;-81
2023/06/12 03:41:06;;;;;;;12.40;10.57;;;;;;;;;;4953672;28;20250;-81
2023/06/12 03:43:33;;;;;;;12.80;10.50;;;;;;;;;;4953857;29;20199;-81
2023/06/12 03:46:00;;;;;;;12.97;10.63;;;;;;;;;;4954121;29;20203;-81
2023/06/12 03:48:27;;;;;;;12.50;11.10;;;;;;;;;;4953395;29;20286;-81
2023/06/12 03:50:56;;;;;;;13.87;11.50;;;;;;;;;;4953642;28;20266;-80
2023/06/12 03:53:23;;;;;;;13.30;11.17;;;;;;;;;;4953466;29;20644;-81
2023/06/12 03:55:50;;;;;;;14.20;10.90;;;;;;;;;;4953806;29;20227;-79
2023/06/12 03:58:17;;;;;;;14.60;11.63;;;;;;;;;;4953651;28;20201;-81
2023/06/12 04:00:47;;;;;;;13.90;11.33;;;;;;;;;;4953656;29;20278;-81
2023/06/12 04:03:17;;;;;;;16.03;11.47;;;;;;;;;;4952940;29;20238;-81
2023/06/12 04:05:45;;;;;;;13.67;10.80;;;;;;;;;;4953586;28;20210;-80
2023/06/12 04:08:13;;;;;;;13.60;10.90;;;;;;;;;;4953172;28;20302;-81
2023/06/12 04:10:41;;;;;;;15.10;11.13;;;;;;;;;;4953508;28;20282;-81
2023/06/12 04:13:08;;;;;;;12.73;10.87;;;;;;;;;;4953202;29;20201;-80
2023/06/12 04:15:36;;;;;;;12.70;11.00;;;;;;;;;;4953436;29;20301;-80
2023/06/12 04:18:04;;;;;;;12.60;10.80;;;;;;;;;;4952834;28;20687;-81
2023/06/12 04:20:32;;;;;;;14.43;10.53;;;;;;;;;;4953336;29;20199;-80
2023/06/12 04:23:04;;;;;;;13.50;10.87;;;;;;;;;;4963482;28;20321;-81
2023/06/12 04:25:32;;;;;;;13.57;11.00;;;;;;;;;;4972572;28;20206;-80
2023/06/12 04:28:00;;;;;;;13.93;11.20;;;;;;;;;;4972442;28;20261;-80
2023/06/12 04:30:27;;;;;;;13.97;10.73;;;;;;;;;;4972356;28;20198;-79
2023/06/12 04:32:56;;;;;;;13.97;10.53;;;;;;;;;;4971975;28;20210;-81
2023/06/12 04:35:23;;;;;;;13.30;10.50;;;;;;;;;;4972843;28;20205;-82
2023/06/12 04:37:52;;;;;;;12.77;10.60;;;;;;;;;;4972701;28;20199;-81
2023/06/12 04:40:22;;;;;;;13.70;11.03;;;;;;;;;;4976338;28;20205;-81
2023/06/12 04:42:53;;;;;;;14.23;10.50;;;;;;;;;;4976397;28;20304;-80
2023/06/12 04:45:21;;;;;;;14.70;10.97;;;;;;;;;;4976397;28;20217;-81
2023/06/12 04:47:50;;;;;;;12.93;10.20;;;;;;;;;;4975941;28;20575;-80
2023/06/12 04:50:18;;;;;;;14.23;11.03;;;;;;;;;;4976373;28;20732;-80
2023/06/12 04:52:47;;;;;;;13.23;10.63;;;;;;;;;;4976058;28;20202;-80
2023/06/12 04:55:16;;;;;;;13.37;10.97;;;;;;;;;;4976655;28;20202;-80
2023/06/12 04:57:45;;;;;;;12.23;10.23;;;;;;;;;;4975831;28;20743;-80
2023/06/12 05:00:15;;;;;;;12.67;10.53;;;;;;;;;;4975636;28;20274;-81
2023/06/12 05:02:42;;;;;;;13.27;10.50;;;;;;;;;;4975741;28;20707;-82
2023/06/12 05:05:10;;;;;;;13.40;9.90;;;;;;;;;;4962414;28;20641;-80
2023/06/12 05:07:37;;;;;;;13.27;10.43;;;;;;;;;;4953372;28;20206;-80
2023/06/12 05:10:05;;;;;;;11.93;10.07;;;;;;;;;;4948475;28;20207;-81
2023/06/12 05:12:32;;;;;;;12.47;10.13;;;;;;;;;;4956734;29;20231;-80
2023/06/12 05:15:00;;;;;;;12.17;10.57;;;;;;;;;;4956106;28;20294;-79
2023/06/12 05:17:29;;;;;;;11.83;10.17;;;;;;;;;;4955892;28;20227;-80
2023/06/12 05:19:56;;;;;;;13.43;10.50;;;;;;;;;;4956794;29;20306;-81
2023/06/12 05:22:23;;;;;;;11.33;10.00;;;;;;;;;;4956116;28;20231;-81
2023/06/12 05:24:50;;;;;;;11.97;10.20;;;;;;;;;;4956216;29;20199;-82
2023/06/12 05:27:17;;;;;;;12.80;9.63;;;;;;;;;;4956107;29;20290;-81
2023/06/12 05:29:45;;;;;;;12.00;9.97;;;;;;;;;;4937700;28;20302;-81
2023/06/12 05:32:12;;;;;;;12.47;9.77;;;;;;;;;;4936759;29;20204;-81
2023/06/12 05:34:41;;;;;;;11.53;9.60;;;;;;;;;;4936831;29;20559;-80
2023/06/12 05:37:08;;;;;;;11.47;9.53;;;;;;;;;;4936950;29;20231;-79
2023/06/12 05:39:35;;;;;;;12.73;10.50;;;;;;;;;;4937154;29;20222;-83
2023/06/12 05:42:02;;;;;;;12.50;9.30;;;;;;;;;;4941630;29;20318;-84
2023/06/12 05:44:30;;;;;;;11.03;9.93;;;;;;;;;;4956520;28;20227;-87
2023/06/12 05:46:58;;;;;;;11.80;9.90;;;;;;;;;;4956012;28;20203;-85
2023/06/12 05:49:25;;;;;;;11.00;9.90;;;;;;;;;;4957127;28;20612;-86
2023/06/12 05:51:54;;;;;;;11.63;10.43;;;;;;;;;;4956856;28;20641;-86
2023/06/12 05:54:21;;;;;;;11.23;9.63;;;;;;;;;;4956853;28;20230;-85
2023/06/12 05:56:48;;;;;;;10.50;9.40;;;;;;;;;;4955491;28;20291;-85
2023/06/12 05:59:15;;;;;;;12.47;9.23;;;;;;;;;;4940597;29;20238;-86
2023/06/12 06:01:43;;;;;;;12.03;8.33;;;;;;;;;;4940605;28;20232;-80
2023/06/12 06:04:11;;;;;;;8.93;8.03;;;;;;;;;;4952804;28;20226;-79
2023/06/12 06:06:38;;;;;;;9.27;8.30;;;;;;;;;;4956343;28;20226;-80
2023/06/12 06:09:07;;;;;;;9.47;8.57;;;;;;;;;;4957351;28;20289;-80
2023/06/12 06:11:34;;;;;;;10.03;8.83;;;;;;;;;;4964600;28;20309;-81
2023/06/12 06:14:03;;;;;;;9.83;8.47;;;;;;;;;;4954677;28;20203;-81
2023/06/12 06:16:30;;;;;;;9.67;8.30;;;;;;;;;;4943047;28;20231;-80
2023/06/12 06:18:57;;;;;;;9.03;7.87;;;;;;;;;;4938147;29;20303;-80
2023/06/12 06:21:24;;;;;;;10.97;7.83;;;;;;;;;;4955262;29;20294;-81
2023/06/12 06:23:51;;;;;;;10.83;8.23;;;;;;;;;;4955361;29;20665;-81
2023/06/12 06:26:20;;;;;;;8.67;7.67;;;;;;;;;;4950661;29;20669;-81
2023/06/12 06:28:47;;;;;;;9.30;8.10;;;;;;;;;;4939307;29;20298;-81
2023/06/12 06:31:14;;;;;;;9.20;8.17;;;;;;;;;;4943759;29;20202;-80
2023/06/12 06:33:42;;;;;;;9.67;7.87;;;;;;;;;;4955206;28;20240;-81
2023/06/12 06:36:09;;;;;;;8.93;8.03;;;;;;;;;;4953454;28;20295;-81
2023/06/12 06:38:36;;;;;;;24.73;10.50;;;;;;;;;;4949404;29;20202;-80
2023/06/12 06:41:03;;;;;;;15.03;8.87;;;;;;;;;;4938654;29;20718;-81
2023/06/12 06:43:32;;;;;;;14.33;8.73;;;;;;;;;;4954110;29;20270;-81
2023/06/12 06:45:59;;;;;;;16.20;7.20;;;;;;;;;;4953544;28;20199;-80
2023/06/12 06:48:26;;;;;;;9.27;7.77;;;;;;;;;;4948727;28;20203;-80
2023/06/12 06:50:53;;;;;;;8.63;7.38;;;;;;;;;;4953020;28;20203;-80
2023/06/12 06:53:21;;;;;;;7.63;6.83;;;;;;;;;;4961141;28;20241;-81
2023/06/12 06:55:48;;;;;;;7.80;7.00;;;;;;;;;;4973931;28;20729;-80
2023/06/12 06:58:15;;;;;;;9.18;7.38;;;;;;;;;;4974105;28;20933;-80
2023/06/12 07:00:44;;;;;;;8.70;7.18;;;;;;;;;;4973563;28;20198;-79
2023/06/12 07:03:11;;;;;;;7.65;6.88;;;;;;;;;;4973855;28;20254;-80
2023/06/12 07:05:39;;;;;;;7.10;6.35;;;;;;;;;;4956461;28;20203;-80
2023/06/12 07:08:06;;;;;;;7.05;6.35;;;;;;;;;;4953328;28;20221;-81
2023/06/12 07:10:33;;;;;;;5.90;5.28;;;;;;;;;;4966648;28;20695;-81
2023/06/12 07:13:00;;;;;;;5.50;4.60;;;;;;;;;;4973343;28;20202;-81
2023/06/12 07:15:29;;;;;;;6.78;5.53;;;;;;;;;;4961682;28;20719;-83
2023/06/12 07:17:57;;;;;;;5.32;4.53;;;;;;;;;;4953984;29;20270;-83
2023/06/12 07:20:25;;;;;;;5.72;5.10;;;;;;;;;;4954348;28;20294;-82
2023/06/12 07:22:52;;;;;;;5.95;5.45;;;;;;;;;;4953606;28;20246;-82
2023/06/12 07:25:19;;;;;;;6.30;5.70;;;;;;;;;;4953875;28;20237;-82
2023/06/12 07:27:46;;;;;;;5.85;5.25;;;;;;;;;;4953658;28;20699;-82
2023/06/12 07:30:14;;;;;;;5.70;5.20;;;;;;;;;;4953965;28;20210;-82
2023/06/12 07:32:41;;;;;;;6.75;6.05;;;;;;;;;;4954138;28;20203;-82
2023/06/12 07:35:10;;;;;;;7.35;6.00;;;;;;;;;;4953664;28;20573;-82
2023/06/12 07:37:39;;;;;;;6.80;6.10;;;;;;;;;;4954005;28;20203;-82
2023/06/12 07:40:08;;;;;;;6.18;5.43;;;;;;;;;;4953391;28;20203;-82
2023/06/12 07:42:35;;;;;;;8.23;6.53;;;;;;;;;;4953810;28;20636;-82
2023/06/12 07:45:04;;;;;;;6.47;5.80;;;;;;;;;;4954118;28;20792;-82
2023/06/12 07:47:31;;;;;;;5.90;5.30;;;;;;;;;;4953546;28;20199;-82
2023/06/12 07:49:59;;;;;;;6.28;5.32;;;;;;;;;;4953441;28;20826;-82
2023/06/12 07:52:31;;;;;;;5.43;4.80;;;;;;;;;;4953676;28;20299;-82
2023/06/12 07:54:59;;;;;;;7.15;4.90;;;;;;;;;;4953419;28;20210;-83
2023/06/12 07:57:26;;;;;;;5.10;4.60;;;;;;;;;;4953607;28;20234;-83
2023/06/12 07:59:53;;;;;;;6.15;4.75;;;;;;;;;;4953312;28;20226;-83
2023/06/12 08:02:28;;;;;;;5.45;4.95;;;;;;;;;;4953691;28;20254;-82
2023/06/12 08:04:55;;;;;;;4.95;4.45;;;;;;;;;;4953160;28;20693;-82
2023/06/12 08:07:23;;;;;;;4.50;4.10;;;;;;;;;;4953499;28;20199;-82
2023/06/12 08:09:51;;;;;;;5.35;4.85;;;;;;;;;;4953061;28;20287;-82
2023/06/12 08:12:19;;;;;;;5.30;4.80;;;;;;;;;;4953401;28;20287;-83
2023/06/12 08:14:48;;;;;;;4.57;4.15;;;;;;;;;;4953193;28;20203;-82
2023/06/12 08:17:16;;;;;;;4.82;4.35;;;;;;;;;;4953006;28;20266;-83
2023/06/12 08:19:43;;;;;;;5.35;4.70;;;;;;;;;;4953503;28;20260;-83
2023/06/12 08:22:11;;;;;;;6.03;5.43;;;;;;;;;;4953104;28;20206;-83
2023/06/12 08:24:41;;;;;;;12.13;6.07;;;;;;;;;;4952630;28;20229;-83
2023/06/12 08:27:10;;;;;;;11.63;5.65;;;;;;;;;;4953839;28;20195;-83
2023/06/12 08:29:40;;;;;;;6.00;5.32;;;;;;;;;;4953156;28;20865;-82
2023/06/12 08:32:10;;;;;;;5.25;4.75;;;;;;;;;;4953025;28;20680;-83
2023/06/12 08:34:38;;;;;;;5.90;4.95;;;;;;;;;;4953298;28;20293;-83
2023/06/12 08:37:05;;;;;;;7.88;5.57;;;;;;;;;;4953206;28;20283;-83
2023/06/12 08:39:33;;;;;;;6.03;5.28;;;;;;;;;;4953105;28;20214;-82
2023/06/12 08:42:02;;;;;;;6.30;5.72;;;;;;;;;;4952970;28;20238;-83
2023/06/12 08:44:31;;;;;;;5.40;4.90;;;;;;;;;;4952950;28;20290;-83
2023/06/12 08:47:01;;;;;;;5.50;5.00;;;;;;;;;;4953401;28;20210;-84
2023/06/12 08:49:28;;;;;;;5.70;5.10;;;;;;;;;;4952974;28;20298;-83
2023/06/12 08:51:55;;;;;;;6.30;5.70;;;;;;;;;;4952724;28;20238;-83
2023/06/12 08:54:23;;;;;;;5.82;5.32;;;;;;;;;;4953082;28;20613;-83
2023/06/12 08:56:51;;;;;;;5.88;4.30;;;;;;;;;;4953121;28;20199;-83
2023/06/12 08:59:18;;;;;;;5.05;4.55;;;;;;;;;;4952783;28;20205;-84
2023/06/12 09:01:52;;;;;;;5.93;5.32;;;;;;;;;;4952953;28;20298;-83
2023/06/12 09:04:26;;;;;;;5.85;5.25;;;;;;;;;;4952978;28;20309;-83
2023/06/12 09:07:01;;;;;;;5.70;5.20;;;;;;;;;;4952238;28;20206;-83
2023/06/12 09:09:37;;;;;;;5.10;4.60;;;;;;;;;;4952663;28;20209;-84
2023/06/12 09:12:05;;;;;;;4.78;4.38;;;;;;;;;;4952279;28;20195;-83
2023/06/12 09:14:34;;;;;;;5.20;4.70;;;;;;;;;;4952821;28;20215;-83
2023/06/12 09:17:03;;;;;;;5.13;4.30;;;;;;;;;;4952605;28;20238;-84
2023/06/12 09:19:37;;;;;;;8.70;4.85;;;;;;;;;;4952790;28;20199;-84
2023/06/12 09:22:04;;;;;;;5.20;4.40;;;;;;;;;;4952404;28;20590;-84
2023/06/12 09:24:31;;;;;;;4.97;4.47;;;;;;;;;;4954210;28;20238;-84
2023/06/12 09:26:58;;;;;;;4.05;3.65;;;;;;;;;;4956171;28;20755;-84
2023/06/12 09:29:30;;;;;;;4.80;4.00;;;;;;;;;;4955918;28;20289;-84
2023/06/12 09:31:59;;;;;;;4.78;3.58;;;;;;;;;;4956483;28;20222;-84
2023/06/12 09:34:28;;;;;;;4.20;3.80;;;;;;;;;;4956435;28;20266;-84
2023/06/12 09:36:58;;;;;;;4.72;3.83;;;;;;;;;;4955664;28;20195;-84
2023/06/12 09:39:28;;;;;;;4.45;2.80;;;;;;;;;;4956373;28;20223;-84
2023/06/12 09:41:56;;;;;;;3.28;2.80;;;;;;;;;;4956247;28;20286;-85
2023/06/12 09:44:28;;;;;;;3.55;2.80;;;;;;;;;;4955789;28;20298;-84
2023/06/12 09:46:59;;;;;;;4.38;3.00;;;;;;;;;;4971480;28;20287;-84
2023/06/12 09:49:28;;;;;;;4.28;3.22;;;;;;;;;;4975219;28;20229;-84
2023/06/12 09:51:55;;;;;;;3.85;3.10;;;;;;;;;;4974639;28;20241;-83
2023/06/12 09:54:23;;;;;;;3.88;3.35;;;;;;;;;;4974939;28;20226;-85
2023/06/12 09:56:53;;;;;;;3.83;3.20;;;;;;;;;;4974896;28;20301;-85
2023/06/12 09:59:22;;;;;;;5.60;3.00;;;;;;;;;;4975123;28;20198;-85
2023/06/12 10:01:50;;;;;;;3.92;3.20;;;;;;;;;;4961101;28;20207;-85
2023/06/12 10:04:21;;;;;;;3.45;2.70;;;;;;;;;;4955431;28;20235;-85
2023/06/12 10:06:50;;;;;;;4.00;3.15;;;;;;;;;;4955621;28;21136;-85
2023/06/12 10:09:17;;;;;;;3.78;3.30;;;;;;;;;;4955870;28;20294;-88
2023/06/12 10:11:45;;;;;;;3.88;3.35;;;;;;;;;;4955767;28;20207;-87
2023/06/12 10:14:13;;;;;;;3.90;3.60;;;;;;;;;;4955810;28;20671;-86
2023/06/12 10:16:42;;;;;;;3.65;3.17;;;;;;;;;;4955348;28;20763;-85
2023/06/12 10:19:09;;;;;;;5.47;4.22;;;;;;;;;;4955222;28;20199;-84
2023/06/12 10:21:37;;;;;;;5.38;4.07;;;;;;;;;;4955471;28;20237;-86
2023/06/12 10:24:06;;;;;;;5.13;4.28;;;;;;;;;;4955164;28;20234;-84
2023/06/12 10:26:33;;;;;;;4.60;4.10;;;;;;;;;;4955469;28;20286;-84
2023/06/12 10:29:01;;;;;;;4.03;3.60;;;;;;;;;;4955225;28;20238;-83
2023/06/12 10:31:30;;;;;;;8.85;4.22;;;;;;;;;;4954828;28;20717;-84
2023/06/12 10:33:58;;;;;;;6.05;3.80;;;;;;;;;;4954576;28;20227;-84
2023/06/12 10:36:27;;;;;;;5.15;4.10;;;;;;;;;;4954021;28;20210;-84
2023/06/12 10:39:02;;;;;;;3.20;2.83;;;;;;;;;;4954900;28;20200;-85
2023/06/12 10:41:34;;;;;;;4.68;3.03;;;;;;;;;;4963693;28;20190;-84
2023/06/12 10:44:04;;;;;;;7.75;3.50;;;;;;;;;;4974058;28;20320;-84
2023/06/12 10:46:45;;;;;;;3.30;2.80;;;;;;;;;;4965274;28;20201;-84
2023/06/12 10:49:13;;;;;;;6.47;3.38;;;;;;;;;;4954476;28;20681;-83
2023/06/12 10:51:48;;;;;;;4.30;3.30;;;;;;;;;;4954913;28;20203;-84
2023/06/12 10:54:16;;;;;;;4.82;2.75;;;;;;;;;;4954976;28;20202;-84
2023/06/12 10:56:59;;;;;;;6.40;3.50;;;;;;;;;;4954437;28;20191;-85
2023/06/12 10:59:31;;;;;;;3.42;2.95;;;;;;;;;;4955334;28;20243;-84
2023/06/12 11:01:58;;;;;;;3.78;2.97;;;;;;;;;;4955017;28;20202;-84
2023/06/12 11:04:26;;;;;;;3.83;2.90;;;;;;;;;;4954219;28;20575;-84
2023/06/12 11:06:53;;;;;;;4.78;3.00;;;;;;;;;;4954587;28;20212;-84
2023/06/12 11:09:20;;;;;;;4.65;3.08;;;;;;;;;;4954681;28;20230;-84
2023/06/12 11:11:51;;;;;;;5.22;2.95;;;;;;;;;;4954789;28;20203;-83
2023/06/12 11:14:27;;;;;;;5.85;3.80;;;;;;;;;;4952448;28;20221;-83
2023/06/12 11:16:58;;;;;;;6.07;4.05;;;;;;;;;;4953008;28;20246;-83
2023/06/12 11:19:28;;;;;;;4.72;3.75;;;;;;;;;;4935115;29;20206;-83
2023/06/12 11:21:56;;;;;;;5.60;3.85;;;;;;;;;;4935209;29;20219;-83
2023/06/12 11:24:23;;;;;;;5.75;3.97;;;;;;;;;;4973484;28;20321;-83
2023/06/12 11:26:51;;;;;;;4.85;3.53;;;;;;;;;;4973753;28;20573;-83
2023/06/12 11:29:22;;;;;;;5.13;3.80;;;;;;;;;;4972762;28;20195;-84
2023/06/12 11:31:50;;;;;;;6.85;3.60;;;;;;;;;;4973120;28;20253;-83
2023/06/12 11:34:18;;;;;;;4.68;3.50;;;;;;;;;;4973199;28;20206;-83
2023/06/12 11:36:45;;;;;;;4.25;3.50;;;;;;;;;;4973075;28;20289;-83
2023/06/12 11:39:18;;;;;;;5.85;3.88;;;;;;;;;;4972955;28;20202;-83
2023/06/12 11:41:49;;;;;;;6.22;3.70;;;;;;;;;;4973287;28;20202;-83
2023/06/12 11:44:16;;;;;;;4.68;3.28;;;;;;;;;;4972530;28;20269;-83
2023/06/12 11:46:45;;;;;;;3.90;3.20;;;;;;;;;;4972822;28;20573;-82
2023/06/12 11:49:14;;;;;;;3.80;3.25;;;;;;;;;;4972815;28;20672;-83
2023/06/12 11:51:41;;;;;;;3.83;3.38;;;;;;;;;;4972946;28;20201;-83
2023/06/12 11:54:11;;;;;;;4.43;2.80;;;;;;;;;;4972191;28;20675;-83
2023/06/12 11:56:41;;;;;;;3.50;3.20;;;;;;;;;;4972609;28;20575;-83
2023/06/12 11:59:09;;;;;;;4.82;3.95;;;;;;;;;;4972678;28;20202;-83
2023/06/12 12:01:38;;;;;;;3.80;3.35;;;;;;;;;;4972663;28;20206;-84
2023/06/12 12:04:09;;;;;;;4.80;3.75;;;;;;;;;;4972071;28;20322;-84
2023/06/12 12:06:47;;;;;;;5.13;4.05;;;;;;;;;;4972252;28;20209;-83
2023/06/12 12:09:15;;;;;;;11.68;4.00;;;;;;;;;;4971921;28;20675;-83
2023/06/12 12:11:42;;;;;;;4.40;3.42;;;;;;;;;;4972740;28;20222;-83
2023/06/12 12:14:09;;;;;;;6.40;3.42;;;;;;;;;;4971298;28;20301;-83
2023/06/12 12:16:43;;;;;;;5.60;3.58;;;;;;;;;;4952752;29;20238;-84
2023/06/12 12:19:18;;;;;;;3.13;2.83;;;;;;;;;;4953709;28;20199;-83
2023/06/12 12:21:46;;;;;;;7.63;3.78;;;;;;;;;;4953641;28;20234;-83
2023/06/12 12:24:13;;;;;;;5.22;4.15;;;;;;;;;;4953156;28;20241;-83
2023/06/12 12:26:42;;;;;;;11.07;4.65;;;;;;;;;;4953053;28;20286;-83
2023/06/12 12:29:09;;;;;;;13.75;5.15;;;;;;;;;;4952815;28;20215;-82
2023/06/12 12:31:37;;;;;;;6.70;4.22;;;;;;;;;;4952703;28;20290;-83
2023/06/12 12:34:04;;;;;;;8.07;4.75;;;;;;;;;;4953167;28;20203;-82
2023/06/12 12:36:33;;;;;;;9.43;5.28;;;;;;;;;;4952815;28;20294;-83
2023/06/12 12:39:00;;;;;;;5.40;3.65;;;;;;;;;;4953232;28;20235;-82
2023/06/12 12:41:27;;;;;;;5.90;5.30;;;;;;;;;;4952912;28;20289;-82
2023/06/12 12:43:54;;;;;;;5.03;3.72;;;;;;;;;;4952537;28;20231;-82
2023/06/12 12:46:22;;;;;;;3.33;3.00;;;;;;;;;;4952682;28;20302;-82
2023/06/12 12:48:49;;;;;;;4.82;3.70;;;;;;;;;;4953218;28;20195;-82
2023/06/12 12:51:16;;;;;;;7.03;3.60;;;;;;;;;;4952814;28;20677;-82
2023/06/12 12:53:46;;;;;;;5.80;3.55;;;;;;;;;;4953236;28;20195;-83
2023/06/12 12:56:14;;;;;;;4.95;3.38;;;;;;;;;;4952498;28;20206;-82
2023/06/12 12:58:42;;;;;;;5.93;3.83;;;;;;;;;;4952412;28;20916;-82
2023/06/12 13:01:10;;;;;;;4.32;3.90;;;;;;;;;;4956609;28;20210;-83
2023/06/12 13:03:38;;;;;;;3.50;3.20;;;;;;;;;;4956758;28;20199;-81
2023/06/12 13:06:06;;;;;;;6.05;3.50;;;;;;;;;;4957143;28;20245;-82
2023/06/12 13:08:34;;;;;;;7.18;3.60;;;;;;;;;;4956693;28;20191;-82
2023/06/12 13:11:03;;;;;;;4.47;3.28;;;;;;;;;;4956888;28;20211;-82
2023/06/12 13:13:32;;;;;;;3.80;3.45;;;;;;;;;;4956575;28;20191;-82
2023/06/12 13:15:59;;;;;;;3.55;3.08;;;;;;;;;;4956135;28;20215;-81
2023/06/12 13:18:26;;;;;;;4.57;3.25;;;;;;;;;;4956550;28;20562;-82
2023/06/12 13:20:54;;;;;;;5.00;3.25;;;;;;;;;;4956387;28;20207;-83
2023/06/12 13:23:22;;;;;;;5.80;3.92;;;;;;;;;;4956448;28;20215;-83
2023/06/12 13:25:49;;;;;;;4.03;2.97;;;;;;;;;;4956225;28;20239;-82
2023/06/12 13:28:17;;;;;;;4.05;3.50;;;;;;;;;;4956193;28;20306;-82
2023/06/12 13:30:45;;;;;;;3.42;3.13;;;;;;;;;;4956320;28;20286;-82
2023/06/12 13:33:12;;;;;;;5.13;2.85;;;;;;;;;;4956268;28;20229;-82
2023/06/12 13:35:39;;;;;;;3.40;3.10;;;;;;;;;;4956041;28;20242;-82
2023/06/12 13:38:07;;;;;;;3.38;3.03;;;;;;;;;;4956026;28;20768;-82
2023/06/12 13:40:34;;;;;;;5.18;3.10;;;;;;;;;;4955887;28;20669;-82
2023/06/12 13:43:01;;;;;;;3.40;3.00;;;;;;;;;;4955408;28;20206;-82
2023/06/12 13:45:31;;;;;;;4.70;3.20;;;;;;;;;;4955699;28;20882;-82
2023/06/12 13:48:02;;;;;;;4.78;3.22;;;;;;;;;;4955847;28;20202;-82
2023/06/12 13:50:30;;;;;;;3.70;3.20;;;;;;;;;;4956020;28;20643;-83
2023/06/12 13:52:57;;;;;;;4.95;3.33;;;;;;;;;;4955672;28;20255;-82
2023/06/12 13:55:24;;;;;;;4.53;3.38;;;;;;;;;;4975380;28;20222;-82
2023/06/12 13:57:55;;;;;;;3.03;2.58;;;;;;;;;;4974660;28;20210;-82
2023/06/12 14:00:22;;;;;;;3.50;2.65;;;;;;;;;;4974536;28;20206;-82
2023/06/12 14:02:52;;;;;;;9.55;3.15;;;;;;;;;;4975245;28;20203;-83
2023/06/12 14:05:19;;;;;;;7.82;3.30;;;;;;;;;;4974501;28;20234;-82
2023/06/12 14:07:46;;;;;;;5.57;3.22;;;;;;;;;;4974773;28;20202;-82
2023/06/12 14:10:14;;;;;;;3.38;2.78;;;;;;;;;;4974165;28;20222;-81
2023/06/12 14:12:41;;;;;;;4.85;2.90;;;;;;;;;;4974582;28;20293;-82
2023/06/12 14:15:09;;;;;;;3.40;3.00;;;;;;;;;;4965734;28;20657;-82
2023/06/12 14:17:37;;;;;;;5.18;3.20;;;;;;;;;;4955500;29;20267;-82
2023/06/12 14:20:07;;;;;;;3.78;3.05;;;;;;;;;;4955337;28;20191;-82
2023/06/12 14:22:34;;;;;;;5.78;3.15;;;;;;;;;;4955577;28;20203;-82
2023/06/12 14:25:01;;;;;;;4.75;2.80;;;;;;;;;;4955291;28;20263;-82
2023/06/12 14:27:28;;;;;;;4.10;2.80;;;;;;;;;;4954975;28;20203;-82
2023/06/12 14:29:55;;;;;;;14.95;3.20;;;;;;;;;;4954914;28;20203;-82
2023/06/12 14:32:23;;;;;;;4.53;3.20;;;;;;;;;;4956959;28;20239;-87
2023/06/12 14:34:50;;;;;;;4.82;2.95;;;;;;;;;;4955979;28;20290;-85
2023/06/12 14:37:26;;;;;;;3.28;2.97;;;;;;;;;;4953378;28;20294;-86
2023/06/12 14:39:53;;;;;;;3.83;2.88;;;;;;;;;;4961862;28;20234;-86